Time;durP1;ratioP1;P1;durP2;ratioP2;P2;SDS_P1;SDS_P2;PMS_P1;PMS_P2;Temp;Humidity;BMP_temperature;BMP_pressure;BME280_temperature;BME280_humidity;BME280_pressure;Samples;Min_cycle;Max_cycle;Signal;HPM_P1;HPM_P2
2023/09/06 00:00:43;;;;;;;7.38;4.50;;;;;;;20.62;100.00;101827.22;5022733;28;20084;-67
2023/09/06 00:03:10;;;;;;;9.73;4.00;;;;;;;20.49;100.00;101827.88;5015691;28;20514;-66
2023/09/06 00:05:41;;;;;;;5.30;4.00;;;;;;;20.40;100.00;101829.81;5024400;28;20050;-67
2023/09/06 00:08:13;;;;;;;5.75;3.90;;;;;;;20.37;100.00;101832.03;5010683;28;20099;-66
2023/09/06 00:10:40;;;;;;;8.05;3.85;;;;;;;20.31;100.00;101833.63;5020632;28;20049;-66
2023/09/06 00:13:07;;;;;;;6.43;4.37;;;;;;;20.29;100.00;101828.47;5015726;28;20967;-66
2023/09/06 00:15:35;;;;;;;7.82;4.85;;;;;;;20.31;100.00;101823.78;5022973;28;20141;-65
2023/09/06 00:18:03;;;;;;;8.05;5.32;;;;;;;20.35;100.00;101816.25;5015914;28;20068;-65
2023/09/06 00:20:30;;;;;;;9.98;4.30;;;;;;;20.40;100.00;101813.81;5022914;28;20107;-66
2023/09/06 00:22:58;;;;;;;8.80;4.60;;;;;;;20.40;100.00;101808.50;5018201;28;20052;-65
2023/09/06 00:25:26;;;;;;;7.93;4.15;;;;;;;20.40;100.00;101811.16;5011232;28;20099;-66
2023/09/06 00:27:55;;;;;;;6.75;4.10;;;;;;;20.40;100.00;101803.16;5021955;28;20103;-66
2023/09/06 00:30:22;;;;;;;7.05;4.20;;;;;;;20.40;100.00;101811.16;5016616;28;20229;-66
2023/09/06 00:32:52;;;;;;;8.27;4.28;;;;;;;20.39;100.00;101811.38;5022926;28;20060;-66
2023/09/06 00:35:22;;;;;;;7.25;3.97;;;;;;;20.34;100.00;101799.41;5019702;28;20053;-66
2023/09/06 00:37:49;;;;;;;9.27;4.68;;;;;;;20.33;100.00;101807.59;5009021;28;20041;-66
2023/09/06 00:40:19;;;;;;;8.80;4.13;;;;;;;20.28;100.00;101805.47;5022686;28;20399;-66
2023/09/06 00:42:50;;;;;;;6.20;3.85;;;;;;;20.21;100.00;101801.09;5015980;28;20057;-65
2023/09/06 00:45:21;;;;;;;6.82;3.90;;;;;;;20.10;100.00;101805.88;5020212;28;20063;-67
2023/09/06 00:47:55;;;;;;;7.22;4.22;;;;;;;20.07;100.00;101802.75;5017245;28;20041;-67
2023/09/06 00:50:22;;;;;;;7.80;4.10;;;;;;;19.98;100.00;101801.22;5018144;28;20402;-65
2023/09/06 00:52:51;;;;;;;7.72;4.13;;;;;;;19.93;100.00;101799.94;5015096;28;20509;-66
2023/09/06 00:55:18;;;;;;;8.57;4.68;;;;;;;19.88;100.00;101802.31;5016163;28;20490;-66
2023/09/06 00:57:46;;;;;;;9.80;4.95;;;;;;;19.86;100.00;101801.69;5021520;28;20132;-65
2023/09/06 01:00:17;;;;;;;8.15;4.43;;;;;;;19.86;100.00;101799.03;5015394;28;20148;-67
2023/09/06 01:02:44;;;;;;;6.90;4.35;;;;;;;19.86;100.00;101801.69;5021258;28;20050;-68
2023/09/06 01:05:11;;;;;;;7.18;4.50;;;;;;;19.86;100.00;101793.69;5008023;28;20722;-69
2023/09/06 01:07:38;;;;;;;6.07;4.30;;;;;;;19.80;100.00;101797.09;5021080;28;20532;-69
2023/09/06 01:10:06;;;;;;;7.80;4.00;;;;;;;19.73;100.00;101804.97;5017352;28;20156;-69
2023/09/06 01:12:34;;;;;;;6.18;4.22;;;;;;;19.65;100.00;101798.91;5021672;28;20053;-69
2023/09/06 01:15:05;;;;;;;9.55;4.13;;;;;;;19.53;100.00;101812.66;5019937;28;20482;-69
2023/09/06 01:17:36;;;;;;;6.70;4.38;;;;;;;19.48;100.00;101814.19;5008478;28;20061;-69
2023/09/06 01:20:29;;;;;;;6.82;4.60;;;;;;;19.42;100.00;101815.75;5014695;28;20075;-69
2023/09/06 01:22:55;;;;;;;7.65;4.63;;;;;;;19.32;100.00;101816.00;5015847;28;20072;-69
2023/09/06 01:25:22;;;;;;;8.35;4.70;;;;;;;19.32;100.00;101818.66;5021866;28;20053;-69
2023/09/06 01:27:49;;;;;;;7.20;5.00;;;;;;;19.31;100.00;101813.53;5012073;28;20056;-68
2023/09/06 01:30:15;;;;;;;6.00;4.38;;;;;;;19.34;100.00;101815.81;5021164;28;20057;-69
2023/09/06 01:32:42;;;;;;;6.10;4.53;;;;;;;19.36;100.00;101819.13;5018259;28;20132;-69
2023/09/06 01:35:10;;;;;;;6.07;4.20;;;;;;;19.36;100.00;101817.28;5008901;28;20049;-70
2023/09/06 01:37:37;;;;;;;8.10;4.38;;;;;;;19.37;100.00;101812.81;5033459;28;20076;-70
2023/09/06 01:40:14;;;;;;;7.65;4.30;;;;;;;19.32;100.00;101818.66;5034032;28;20048;-69
2023/09/06 01:42:41;;;;;;;8.27;4.72;;;;;;;19.24;100.00;101813.41;5011786;28;20802;-70
2023/09/06 01:45:08;;;;;;;7.38;4.75;;;;;;;19.20;100.00;101814.78;5011431;28;20401;-69
2023/09/06 01:47:35;;;;;;;10.57;5.07;;;;;;;19.20;100.00;101809.47;5012646;28;20061;-70
2023/09/06 01:50:02;;;;;;;6.22;4.57;;;;;;;19.21;100.00;101812.94;5028873;28;20049;-70
2023/09/06 01:52:28;;;;;;;6.87;4.57;;;;;;;19.20;100.00;101817.44;5035282;28;20077;-69
2023/09/06 01:54:55;;;;;;;7.28;4.57;;;;;;;19.18;100.00;101806.16;5026004;28;20278;-70
2023/09/06 01:57:21;;;;;;;10.15;6.57;;;;;;;19.19;100.00;101814.94;5019155;28;20045;-70
2023/09/06 01:59:50;;;;;;;10.00;6.28;;;;;;;19.10;100.00;101807.03;5026943;28;20962;-70
2023/09/06 02:02:17;;;;;;;11.38;6.45;;;;;;;19.11;100.00;101823.81;5024378;28;20084;-70
2023/09/06 02:04:43;;;;;;;8.15;4.70;;;;;;;19.02;100.00;101823.06;5023651;28;20431;-69
2023/09/06 02:07:10;;;;;;;6.72;4.13;;;;;;;18.96;100.00;101824.59;5036654;28;20052;-70
2023/09/06 02:09:36;;;;;;;7.07;4.40;;;;;;;18.92;100.00;101823.31;5030883;28;20052;-69
2023/09/06 02:12:03;;;;;;;8.65;4.47;;;;;;;18.86;100.00;101824.03;5025734;28;20061;-70
2023/09/06 02:14:30;;;;;;;5.40;4.15;;;;;;;18.80;100.00;101830.03;5017970;28;20144;-69
2023/09/06 02:16:56;;;;;;;5.97;4.10;;;;;;;18.77;100.00;101827.69;5024928;28;20134;-69
2023/09/06 02:19:23;;;;;;;8.77;4.53;;;;;;;18.70;100.00;101830.25;5018200;28;20155;-69
2023/09/06 02:21:49;;;;;;;7.47;4.65;;;;;;;18.71;100.00;101828.41;5032897;28;20124;-69
2023/09/06 02:24:16;;;;;;;8.13;5.18;;;;;;;18.66;100.00;101828.94;5028808;28;20167;-70
2023/09/06 02:26:43;;;;;;;9.60;4.50;;;;;;;18.65;100.00;101837.06;5032905;28;20877;-69
2023/09/06 02:29:11;;;;;;;8.20;4.88;;;;;;;18.65;100.00;101829.94;5018213;28;20045;-70
2023/09/06 02:31:38;;;;;;;6.50;4.10;;;;;;;18.67;100.00;101837.72;5026546;28;20079;-70
2023/09/06 02:34:05;;;;;;;7.80;5.07;;;;;;;18.69;100.00;101838.38;5037543;28;20064;-68
2023/09/06 02:36:31;;;;;;;7.88;5.25;;;;;;;18.66;100.00;101836.91;5028696;28;20060;-69
2023/09/06 02:38:58;;;;;;;6.35;4.60;;;;;;;18.67;100.00;101843.03;5032088;28;20063;-70
2023/09/06 02:41:24;;;;;;;8.95;5.47;;;;;;;18.65;100.00;101843.22;5023486;28;20513;-69
2023/09/06 02:43:51;;;;;;;6.22;5.25;;;;;;;18.66;100.00;101849.34;5008946;28;20153;-69
2023/09/06 02:46:17;;;;;;;9.60;5.85;;;;;;;18.62;100.00;101853.34;5015703;28;20487;-69
2023/09/06 02:48:46;;;;;;;9.98;5.13;;;;;;;18.58;100.00;101851.06;5012499;28;20049;-69
2023/09/06 02:51:15;;;;;;;6.85;5.03;;;;;;;18.55;100.00;101847.94;5020810;28;20476;-69
2023/09/06 02:53:45;;;;;;;8.00;5.45;;;;;;;18.51;100.00;101849.28;5008744;28;20281;-68
2023/09/06 02:56:15;;;;;;;7.35;5.15;;;;;;;18.42;100.00;101853.78;5000693;28;20046;-69
2023/09/06 02:58:42;;;;;;;7.80;5.32;;;;;;;18.38;100.00;101850.66;5001668;28;20045;-69
2023/09/06 03:01:19;;;;;;;8.07;5.65;;;;;;;18.35;100.00;101852.84;5022542;28;20045;-69
2023/09/06 03:03:51;;;;;;;7.47;4.95;;;;;;;18.37;100.00;101851.66;5029058;28;20374;-69
2023/09/06 03:06:18;;;;;;;7.38;5.40;;;;;;;18.37;100.00;101861.47;5016751;28;20053;-69
2023/09/06 03:08:46;;;;;;;7.47;5.25;;;;;;;18.35;100.00;101863.47;5038554;28;20532;-70
2023/09/06 03:11:15;;;;;;;7.78;5.85;;;;;;;18.33;100.00;101860.16;5009729;28;20049;-70
2023/09/06 03:13:45;;;;;;;7.93;4.90;;;;;;;18.37;100.00;101859.63;5006007;28;20533;-69
2023/09/06 03:16:13;;;;;;;9.93;5.60;;;;;;;18.36;100.00;101857.97;5011488;28;20084;-70
2023/09/06 03:18:42;;;;;;;9.45;5.80;;;;;;;18.40;100.00;101854.97;5010508;28;20793;-70
2023/09/06 03:21:09;;;;;;;7.70;5.53;;;;;;;18.36;100.00;101857.97;5027493;28;20248;-71
2023/09/06 03:23:35;;;;;;;10.30;5.80;;;;;;;18.40;100.00;101857.63;5033785;28;20100;-69
2023/09/06 03:26:02;;;;;;;8.98;6.18;;;;;;;18.43;100.00;101862.59;5007491;28;20376;-70
2023/09/06 03:28:28;;;;;;;9.48;5.28;;;;;;;18.42;100.00;101860.94;5015464;28;20631;-69
2023/09/06 03:30:58;;;;;;;8.52;5.57;;;;;;;18.42;100.00;101867.06;5015375;28;20056;-70
2023/09/06 03:33:27;;;;;;;9.40;5.75;;;;;;;18.43;100.00;101870.56;5020488;28;20046;-70
2023/09/06 03:35:54;;;;;;;7.57;5.50;;;;;;;18.43;100.00;101868.72;5003167;28;20141;-70
2023/09/06 03:38:25;;;;;;;9.30;5.38;;;;;;;18.43;100.00;101865.25;5009236;28;20049;-70
2023/09/06 03:40:52;;;;;;;12.02;6.00;;;;;;;18.35;100.00;101874.09;5010671;28;20046;-70
2023/09/06 03:43:30;;;;;;;7.35;5.25;;;;;;;18.32;100.00;101867.28;5026631;28;20180;-69
2023/09/06 03:45:58;;;;;;;;;;;;;;;18.35;100.00;101866.94;5013458;28;20126;-69
2023/09/06 03:48:27;;;;;;;8.98;6.50;;;;;;;18.28;100.00;101865.97;5027959;28;19940;-70
2023/09/06 03:50:56;;;;;;;8.90;5.60;;;;;;;18.21;100.00;101859.69;5029376;28;20489;-69
2023/09/06 03:53:27;;;;;;;8.27;5.50;;;;;;;18.27;100.00;101871.44;5019178;28;20740;-70
2023/09/06 03:55:57;;;;;;;8.85;5.65;;;;;;;18.24;100.00;101862.00;5014943;28;20060;-69
2023/09/06 03:58:25;;;;;;;8.27;5.35;;;;;;;18.21;100.00;101870.31;5030771;28;20049;-69
2023/09/06 04:00:52;;;;;;;10.77;5.35;;;;;;;18.21;100.00;101869.47;5037126;28;20064;-70
2023/09/06 04:03:20;;;;;;;7.80;5.35;;;;;;;18.15;100.00;101868.31;5036447;28;20591;-69
2023/09/06 04:05:47;;;;;;;8.93;4.70;;;;;;;18.12;100.00;101872.16;5034434;28;20119;-69
2023/09/06 04:08:17;;;;;;;8.40;4.85;;;;;;;18.07;100.00;101876.31;5020443;28;20120;-70
2023/09/06 04:10:45;;;;;;;7.40;4.95;;;;;;;18.07;100.00;101882.47;5035357;28;20163;-70
2023/09/06 04:13:13;;;;;;;10.80;5.73;;;;;;;18.03;100.00;101873.16;5024216;28;20081;-70
2023/09/06 04:15:42;;;;;;;7.28;5.22;;;;;;;18.04;100.00;101871.38;5016266;28;20126;-69
2023/09/06 04:18:10;;;;;;;6.82;4.45;;;;;;;18.03;100.00;101877.66;5030385;28;20115;-70
2023/09/06 04:20:39;;;;;;;6.82;5.10;;;;;;;17.99;100.00;101874.50;5025756;28;20053;-69
2023/09/06 04:23:07;;;;;;;9.02;5.47;;;;;;;17.94;100.00;101876.88;5024871;28;20453;-70
2023/09/06 04:25:41;;;;;;;8.35;5.05;;;;;;;17.94;100.00;101874.22;5019447;28;20049;-69
2023/09/06 04:28:13;;;;;;;8.07;5.20;;;;;;;17.88;100.00;101878.38;5027044;28;20044;-69
2023/09/06 04:30:41;;;;;;;8.13;4.95;;;;;;;17.87;100.00;101876.69;5035230;28;20116;-69
2023/09/06 04:33:15;;;;;;;8.55;4.60;;;;;;;17.87;100.00;101878.53;5018718;28;20815;-71
2023/09/06 04:35:43;;;;;;;7.45;4.63;;;;;;;17.84;100.00;101885.00;5019073;28;20651;-70
2023/09/06 04:38:17;;;;;;;;;;;;;;;17.84;100.00;101878.84;5017379;28;20053;-70
2023/09/06 04:40:44;;;;;;;9.05;5.03;;;;;;;17.82;100.00;101886.97;5027305;28;19943;-69
2023/09/06 04:43:17;;;;;;;7.38;5.05;;;;;;;17.81;100.00;101885.31;5018362;28;20050;-70
2023/09/06 04:45:44;;;;;;;7.53;4.90;;;;;;;17.77;100.00;101882.16;5011971;28;20072;-70
2023/09/06 04:48:12;;;;;;;7.38;4.80;;;;;;;17.76;100.00;101883.16;5038277;28;20053;-69
2023/09/06 04:50:40;;;;;;;6.05;5.05;;;;;;;17.76;100.00;101892.97;5021374;28;20107;-71
2023/09/06 04:53:08;;;;;;;8.18;5.00;;;;;;;17.77;100.00;101895.41;5015181;28;20052;-70
2023/09/06 04:55:35;;;;;;;7.60;5.30;;;;;;;17.73;100.00;101888.78;5030505;28;20428;-70
2023/09/06 04:58:03;;;;;;;10.73;5.10;;;;;;;17.71;100.00;101882.81;5029435;28;20054;-69
2023/09/06 05:00:37;;;;;;;7.97;4.80;;;;;;;17.73;100.00;101891.44;5000370;28;20049;-70
2023/09/06 05:03:13;;;;;;;8.27;4.97;;;;;;;17.70;100.00;101888.28;5025260;28;20053;-70
2023/09/06 05:05:41;;;;;;;6.45;4.60;;;;;;;17.70;100.00;101885.63;5014157;28;20508;-69
2023/09/06 05:08:08;;;;;;;7.78;4.95;;;;;;;17.65;100.00;101887.97;5022570;28;20042;-70
2023/09/06 05:10:35;;;;;;;9.75;5.32;;;;;;;17.61;100.00;101891.97;5033920;28;20172;-70
2023/09/06 05:13:02;;;;;;;7.47;5.13;;;;;;;17.59;100.00;101887.66;5018010;28;20073;-69
2023/09/06 05:15:28;;;;;;;7.18;4.90;;;;;;;17.58;100.00;101895.75;5018782;28;20522;-69
2023/09/06 05:17:55;;;;;;;8.07;5.32;;;;;;;17.60;100.00;101896.41;5017680;28;20044;-69
2023/09/06 05:20:29;;;;;;;6.95;4.97;;;;;;;17.65;100.00;101901.25;5024862;28;20069;-70
2023/09/06 05:22:57;;;;;;;11.93;5.60;;;;;;;17.63;100.00;101912.03;5024031;28;20049;-69
2023/09/06 05:25:25;;;;;;;9.32;5.30;;;;;;;17.62;100.00;101905.06;5011145;28;20491;-70
2023/09/06 05:27:56;;;;;;;9.15;5.43;;;;;;;17.64;100.00;101907.53;5024084;28;20076;-70
2023/09/06 05:30:24;;;;;;;11.43;5.43;;;;;;;17.66;100.00;101916.16;5011970;28;20107;-69
2023/09/06 05:32:51;;;;;;;10.10;5.60;;;;;;;17.64;100.00;101916.34;5028187;28;20154;-69
2023/09/06 05:35:17;;;;;;;8.07;5.68;;;;;;;17.70;100.00;101926.28;5008924;28;20486;-70
2023/09/06 05:37:44;;;;;;;10.02;5.93;;;;;;;17.71;100.00;101922.63;5032450;28;20045;-70
2023/09/06 05:40:12;;;;;;;6.82;5.32;;;;;;;17.75;100.00;101926.59;5018819;28;20156;-70
2023/09/06 05:42:40;;;;;;;6.97;5.07;;;;;;;17.76;100.00;101930.09;5025919;28;20422;-70
2023/09/06 05:45:13;;;;;;;8.50;5.60;;;;;;;17.80;100.00;101931.44;5016487;28;20492;-70
2023/09/06 05:47:39;;;;;;;9.82;5.75;;;;;;;17.80;100.00;101934.09;5018672;28;20049;-70
2023/09/06 05:50:06;;;;;;;8.68;5.63;;;;;;;17.82;100.00;101937.41;5026520;28;20045;-69
2023/09/06 05:52:33;;;;;;;11.80;5.82;;;;;;;17.85;100.00;101934.44;5023192;28;20052;-69
2023/09/06 05:55:01;;;;;;;10.15;5.18;;;;;;;17.88;100.00;101936.75;5033608;28;20053;-69
2023/09/06 05:57:27;;;;;;;7.63;5.32;;;;;;;17.90;100.00;101941.91;5018670;28;20052;-69
2023/09/06 05:59:54;;;;;;;13.65;5.53;;;;;;;17.89;100.00;101935.75;5022873;28;20115;-69
2023/09/06 06:02:20;;;;;;;7.88;5.65;;;;;;;17.89;100.00;101941.06;5025711;28;20056;-69
2023/09/06 06:04:47;;;;;;;9.05;5.47;;;;;;;17.91;100.00;101932.94;5012976;28;20064;-69
2023/09/06 06:07:13;;;;;;;11.40;5.88;;;;;;;17.90;100.00;101929.44;5018384;28;20122;-70
2023/09/06 06:09:40;;;;;;;8.98;6.07;;;;;;;17.96;100.00;101938.56;5023781;28;20057;-69
2023/09/06 06:12:06;;;;;;;9.60;5.60;;;;;;;18.00;100.00;101942.53;5025191;28;20064;-70
2023/09/06 06:14:35;;;;;;;11.43;5.53;;;;;;;18.02;100.00;101935.25;5017220;28;20518;-69
2023/09/06 06:17:01;;;;;;;;;;;;;;;18.08;100.00;101949.69;5008358;28;20052;-69
2023/09/06 06:19:28;;;;;;;7.30;5.72;;;;;;;18.09;100.00;101943.34;5010547;28;19931;-69
2023/09/06 06:21:54;;;;;;;11.20;5.78;;;;;;;18.13;100.00;101950.84;5010475;28;20421;-70
2023/09/06 06:24:23;;;;;;;11.52;6.07;;;;;;;18.17;100.00;101949.50;5012720;28;20429;-70
2023/09/06 06:26:51;;;;;;;10.70;6.38;;;;;;;18.21;100.00;101955.31;5028013;28;20084;-69
2023/09/06 06:29:17;;;;;;;11.30;6.45;;;;;;;18.25;100.00;101955.75;5018829;28;20124;-70
2023/09/06 06:31:45;;;;;;;13.10;5.97;;;;;;;18.29;100.00;101957.09;5015771;28;20057;-70
2023/09/06 06:34:14;;;;;;;16.23;6.03;;;;;;;18.33;100.00;101953.13;5017089;28;20049;-69
2023/09/06 06:36:41;;;;;;;12.25;5.85;;;;;;;18.35;100.00;101957.25;5007135;28;20772;-70
2023/09/06 06:39:10;;;;;;;17.77;6.13;;;;;;;18.41;100.00;101955.75;5004007;28;20077;-70
2023/09/06 06:41:36;;;;;;;16.20;7.78;;;;;;;18.46;100.00;101955.22;5004401;28;21195;-69
2023/09/06 06:44:03;;;;;;;9.40;6.38;;;;;;;18.49;100.00;101958.38;5007148;28;20056;-69
2023/09/06 06:46:32;;;;;;;10.27;5.95;;;;;;;18.55;100.00;101962.16;5018436;28;20056;-69
2023/09/06 06:49:00;;;;;;;10.80;6.80;;;;;;;18.56;100.00;101961.16;5018962;28;20069;-70
2023/09/06 06:51:27;;;;;;;8.68;6.43;;;;;;;18.60;100.00;101959.81;5027537;28;20061;-69
2023/09/06 06:53:53;;;;;;;9.23;6.40;;;;;;;18.66;100.00;101959.16;5028354;28;20390;-71
2023/09/06 06:56:21;;;;;;;13.23;6.18;;;;;;;18.70;100.00;101965.78;5011324;28;20060;-69
2023/09/06 06:58:48;;;;;;;11.35;6.50;;;;;;;18.77;100.00;101957.94;5018964;28;20132;-69
2023/09/06 07:01:15;;;;;;;11.80;5.95;;;;;;;18.78;100.00;101960.41;5023485;28;20057;-71
2023/09/06 07:03:41;;;;;;;9.02;5.72;;;;;;;18.85;100.00;101963.22;5031419;28;20057;-70
2023/09/06 07:06:08;;;;;;;13.27;6.47;;;;;;;18.90;100.00;101963.56;5023041;28;20053;-70
2023/09/06 07:08:35;;;;;;;12.60;6.00;;;;;;;18.96;100.00;101965.50;5027791;28;20050;-70
2023/09/06 07:11:06;;;;;;;16.87;6.60;;;;;;;19.03;100.00;101967.47;5014960;28;20491;-70
2023/09/06 07:13:34;;;;;;;9.50;5.43;;;;;;;19.09;100.00;101966.78;5037863;28;20045;-70
2023/09/06 07:16:01;;;;;;;12.18;5.78;;;;;;;19.14;100.00;101967.09;5028856;28;20136;-70
2023/09/06 07:18:27;;;;;;;8.75;4.97;;;;;;;19.25;100.00;101968.50;5019466;28;20057;-71
2023/09/06 07:20:54;;;;;;;6.43;4.25;;;;;;;19.30;100.00;101972.28;5015168;28;20159;-71
2023/09/06 07:23:21;;;;;;;11.40;5.20;;;;;;;19.37;100.00;101972.44;5013674;28;20053;-69
2023/09/06 07:25:47;;;;;;;10.07;4.55;;;;;;;19.42;100.00;101970.06;5018189;28;20396;-71
2023/09/06 07:28:14;;;;;;;10.20;4.53;;;;;;;19.48;100.00;101965.84;5019789;28;20076;-71
2023/09/06 07:30:42;;;;;;;6.18;4.40;;;;;;;19.60;100.00;101969.78;5019722;28;20081;-71
2023/09/06 07:33:09;;;;;;;9.40;4.43;;;;;;;19.67;100.00;101977.88;5025888;28;20137;-71
2023/09/06 07:35:36;;;;;;;7.15;4.25;;;;;;;19.69;100.00;101973.19;5018018;28;20965;-71
2023/09/06 07:38:02;;;;;;;6.03;4.35;;;;;;;19.76;100.00;101979.50;5019751;28;20050;-71
2023/09/06 07:40:29;;;;;;;7.00;4.65;;;;;;;19.81;100.00;101978.94;5012936;28;20062;-69
2023/09/06 07:42:55;;;;;;;6.72;3.72;;;;;;;19.86;100.00;101982.72;5023561;28;20041;-71
2023/09/06 07:45:22;;;;;;;6.47;4.95;;;;;;;19.93;100.00;101982.81;5022085;28;20505;-70
2023/09/06 07:47:48;;;;;;;8.13;4.35;;;;;;;20.00;100.00;101981.09;5019612;28;20480;-70
2023/09/06 07:50:15;;;;;;;7.18;4.20;;;;;;;20.08;100.00;101981.03;5025388;28;20485;-70
2023/09/06 07:52:42;;;;;;;7.10;4.57;;;;;;;20.14;100.00;101972.31;5013399;28;20061;-70
2023/09/06 07:55:08;;;;;;;8.10;5.40;;;;;;;20.22;100.00;101968.75;5021889;28;20140;-70
2023/09/06 07:57:35;;;;;;;7.50;4.97;;;;;;;20.28;100.00;101975.19;5017664;28;20052;-69
2023/09/06 08:00:04;;;;;;;9.40;5.18;;;;;;;20.36;100.00;101977.75;5024321;28;20128;-70
2023/09/06 08:02:30;;;;;;;9.07;5.15;;;;;;;20.41;100.00;101986.03;5025189;28;20825;-69
2023/09/06 08:04:57;;;;;;;13.80;5.28;;;;;;;20.49;100.00;101987.78;5012385;28;20059;-70
2023/09/06 08:07:24;;;;;;;9.27;4.77;;;;;;;20.56;100.00;101986.00;5018927;28;20153;-69
2023/09/06 08:09:50;;;;;;;6.88;4.65;;;;;;;20.61;100.00;101975.66;5014232;28;20100;-69
2023/09/06 08:12:17;;;;;;;9.57;4.75;;;;;;;20.76;100.00;101981.00;5022932;28;20140;-69
2023/09/06 08:14:43;;;;;;;7.93;3.55;;;;;;;20.90;100.00;101984.66;5017786;28;20054;-70
2023/09/06 08:17:10;;;;;;;9.30;5.00;;;;;;;21.03;100.00;101983.97;5021954;28;20056;-69
2023/09/06 08:19:37;;;;;;;6.30;4.78;;;;;;;21.17;100.00;101985.78;5019282;28;20045;-69
2023/09/06 08:22:03;;;;;;;9.85;5.50;;;;;;;21.30;100.00;101990.44;5008964;28;20093;-70
2023/09/06 08:24:31;;;;;;;13.00;5.03;;;;;;;21.49;100.00;101984.50;5022422;28;20553;-70
2023/09/06 08:26:58;;;;;;;9.88;5.07;;;;;;;21.69;100.00;101982.00;5016880;28;20064;-70
2023/09/06 08:29:24;;;;;;;6.38;4.13;;;;;;;21.94;100.00;101988.81;5024828;28;20040;-69
2023/09/06 08:31:51;;;;;;;9.88;5.22;;;;;;;22.16;100.00;101990.41;5022823;28;20464;-70
2023/09/06 08:34:17;;;;;;;9.02;5.30;;;;;;;22.40;100.00;101993.66;5013111;28;20057;-69
2023/09/06 08:36:44;;;;;;;9.48;4.90;;;;;;;22.60;100.00;101991.09;5018307;28;20146;-69
2023/09/06 08:39:10;;;;;;;8.85;4.35;;;;;;;22.81;100.00;101995.50;5016158;28;20049;-71
2023/09/06 08:41:38;;;;;;;12.75;4.40;;;;;;;23.02;100.00;101991.91;5021988;28;20081;-70
2023/09/06 08:44:06;;;;;;;7.67;3.97;;;;;;;23.20;100.00;101996.72;5017184;28;20137;-71
2023/09/06 08:46:38;;;;;;;7.20;4.35;;;;;;;23.39;98.78;101990.59;5023064;28;20107;-70
2023/09/06 08:49:04;;;;;;;7.53;4.40;;;;;;;23.59;97.15;101990.59;5015908;28;20052;-70
2023/09/06 08:51:35;;;;;;;6.57;4.10;;;;;;;23.81;95.42;101991.25;5016004;28;20103;-70
2023/09/06 08:54:05;;;;;;;5.95;4.18;;;;;;;23.98;92.32;101989.00;5023475;28;20041;-70
2023/09/06 08:56:32;;;;;;;7.75;4.45;;;;;;;24.13;90.90;101991.47;5014976;28;20049;-70
2023/09/06 08:58:59;;;;;;;8.07;3.90;;;;;;;24.32;92.78;101996.97;5023419;28;20092;-70
2023/09/06 09:01:27;;;;;;;7.68;4.15;;;;;;;24.49;91.85;101995.50;5012901;28;20041;-70
2023/09/06 09:03:54;;;;;;;7.15;3.90;;;;;;;24.71;88.71;101989.88;5015593;28;20064;-70
2023/09/06 09:06:21;;;;;;;8.18;3.80;;;;;;;24.87;88.04;101992.06;5025250;28;21502;-70
2023/09/06 09:08:47;;;;;;;7.57;3.42;;;;;;;25.00;88.23;101994.69;5015739;28;20160;-71
2023/09/06 09:11:18;;;;;;;8.43;4.00;;;;;;;25.15;87.04;101991.75;5024122;28;20073;-70
2023/09/06 09:13:45;;;;;;;9.90;4.15;;;;;;;25.32;86.33;101991.25;5013759;28;20076;-70
2023/09/06 09:16:14;;;;;;;9.70;4.40;;;;;;;25.49;85.23;101986.19;5016133;28;20059;-70
2023/09/06 09:18:43;;;;;;;11.40;5.53;;;;;;;25.63;82.78;101993.09;5007653;28;20079;-70
2023/09/06 09:21:11;;;;;;;8.32;5.13;;;;;;;25.78;82.18;101990.09;5018511;28;20399;-70
2023/09/06 09:23:55;;;;;;;13.05;6.75;;;;;;;25.94;81.63;101991.44;5021418;28;20076;-70
2023/09/06 09:26:22;;;;;;;17.98;6.88;;;;;;;26.11;81.38;101989.81;5016559;28;20417;-70
2023/09/06 09:28:49;;;;;;;12.63;6.50;;;;;;;26.20;77.47;101993.03;5021954;28;20328;-70
2023/09/06 09:31:16;;;;;;;9.57;5.97;;;;;;;26.34;79.26;101991.84;5009102;28;20053;-69
2023/09/06 09:33:47;;;;;;;8.82;5.22;;;;;;;26.50;77.46;101993.13;5022649;28;20045;-71
2023/09/06 09:36:14;;;;;;;11.70;4.95;;;;;;;26.63;76.54;101990.31;5017200;28;20045;-70
2023/09/06 09:38:42;;;;;;;9.23;3.72;;;;;;;26.81;74.49;101986.78;5023531;28;20441;-70
2023/09/06 09:41:09;;;;;;;6.15;3.10;;;;;;;27.02;76.22;101993.53;5024484;28;20132;-70
2023/09/06 09:43:35;;;;;;;7.47;3.50;;;;;;;27.15;72.82;101989.03;5011070;28;20084;-70
2023/09/06 09:46:02;;;;;;;6.72;3.90;;;;;;;27.32;72.93;101983.81;5017443;28;20053;-70
2023/09/06 09:48:30;;;;;;;9.98;3.70;;;;;;;27.53;72.41;101996.75;5012333;28;20614;-70
2023/09/06 09:51:01;;;;;;;7.78;3.47;;;;;;;27.70;69.35;101990.69;5019544;28;20572;-70
2023/09/06 09:53:30;;;;;;;7.90;3.97;;;;;;;27.87;70.27;101991.63;5013345;28;20146;-71
2023/09/06 09:56:02;;;;;;;5.47;3.22;;;;;;;27.96;66.26;101989.44;5024562;28;20633;-70
2023/09/06 09:58:33;;;;;;;7.30;3.10;;;;;;;28.19;67.14;101985.91;5013519;28;20069;-70
2023/09/06 10:01:00;;;;;;;5.72;3.03;;;;;;;28.38;65.12;101981.19;5015830;28;20050;-71
2023/09/06 10:03:28;;;;;;;7.85;3.08;;;;;;;28.56;65.05;101985.63;5022661;28;20140;-70
2023/09/06 10:05:58;;;;;;;8.05;3.50;;;;;;;28.70;63.82;101976.22;5014482;28;20049;-70
2023/09/06 10:08:27;;;;;;;6.05;3.47;;;;;;;28.87;62.67;101973.53;5020614;28;20136;-70
2023/09/06 10:10:54;;;;;;;5.10;3.38;;;;;;;29.02;61.45;101981.13;5012942;28;20127;-70
2023/09/06 10:13:26;;;;;;;7.75;3.70;;;;;;;29.17;61.31;101970.63;5013686;28;20126;-70
2023/09/06 10:15:56;;;;;;;9.75;3.70;;;;;;;29.33;58.16;101971.69;5011857;28;20564;-70
2023/09/06 10:18:22;;;;;;;7.80;3.72;;;;;;;29.46;58.22;101965.16;5021591;28;20049;-70
2023/09/06 10:20:50;;;;;;;7.35;3.35;;;;;;;29.61;58.99;101964.56;5022921;28;21433;-70
2023/09/06 10:23:17;;;;;;;5.55;3.15;;;;;;;29.73;56.87;101959.09;5016861;28;20678;-69
2023/09/06 10:25:50;;;;;;;6.40;3.00;;;;;;;29.97;56.55;101962.41;5017415;28;20045;-70
2023/09/06 10:28:22;;;;;;;9.05;3.03;;;;;;;30.09;56.09;101962.31;5013241;28;20111;-70
2023/09/06 10:30:54;;;;;;;6.10;3.38;;;;;;;30.23;54.91;101962.78;5021463;28;20045;-69
2023/09/06 10:33:33;;;;;;;9.05;3.55;;;;;;;30.43;53.05;101956.81;5019347;28;20088;-71
2023/09/06 10:36:07;;;;;;;8.65;3.47;;;;;;;30.52;53.35;101958.00;5022148;28;20415;-69
2023/09/06 10:38:58;;;;;;;7.18;3.28;;;;;;;30.60;51.54;101960.28;5011988;28;20052;-69
2023/09/06 10:41:26;;;;;;;5.75;3.22;;;;;;;30.69;50.67;101953.31;5017999;28;20625;-70
2023/09/06 10:43:59;;;;;;;7.75;3.55;;;;;;;30.83;50.91;101956.44;5020500;28;20426;-68
2023/09/06 10:46:28;;;;;;;7.38;3.33;;;;;;;31.00;50.40;101956.38;5017380;28;20067;-68
2023/09/06 10:49:22;;;;;;;6.80;3.55;;;;;;;31.26;51.41;101962.00;5019194;28;20129;-69
2023/09/06 10:52:03;;;;;;;8.93;4.10;;;;;;;31.36;49.47;101956.66;5016859;28;20153;-68
2023/09/06 10:54:34;;;;;;;7.65;3.60;;;;;;;31.58;49.13;101956.63;5023111;28;20379;-68
2023/09/06 10:57:03;;;;;;;9.82;3.72;;;;;;;31.72;49.30;101968.63;5019218;28;20049;-68
2023/09/06 10:59:36;;;;;;;7.03;3.13;;;;;;;31.87;48.71;101967.09;5023583;28;20084;-68
2023/09/06 11:02:27;;;;;;;6.63;3.38;;;;;;;31.95;46.38;101957.63;5015439;28;20067;-68
2023/09/06 11:05:09;;;;;;;8.40;3.55;;;;;;;32.11;45.58;101964.81;5017029;28;20077;-68
2023/09/06 11:07:41;;;;;;;6.57;3.50;;;;;;;32.23;46.88;101956.47;5018287;28;20135;-68
2023/09/06 11:10:23;;;;;;;9.23;3.40;;;;;;;32.35;45.36;101956.22;5023083;28;20041;-68
2023/09/06 11:12:53;;;;;;;6.18;3.10;;;;;;;32.46;45.63;101955.16;5020520;28;20046;-68
2023/09/06 11:15:24;;;;;;;8.23;2.92;;;;;;;32.56;44.67;101954.41;5014831;28;20049;-69
2023/09/06 11:17:53;;;;;;;8.80;3.33;;;;;;;32.79;44.74;101953.91;5015867;28;20049;-69
2023/09/06 11:20:20;;;;;;;6.00;3.75;;;;;;;32.91;42.40;101942.78;5009598;28;20164;-69
2023/09/06 11:22:51;;;;;;;8.60;3.80;;;;;;;32.98;43.44;101946.06;5023448;28;20057;-69
2023/09/06 11:25:19;;;;;;;8.10;3.63;;;;;;;33.09;41.24;101942.31;5012075;28;20481;-68